createdAt,value
2018-09-24T00:00:59.655Z,7.57
2018-09-24T00:03:27.659Z,7.51
2018-09-24T00:05:55.677Z,7.49
2018-09-24T00:08:23.637Z,7.48
2018-09-24T00:10:51.616Z,7.46
2018-09-24T00:13:19.605Z,7.46
2018-09-24T00:15:47.710Z,7.46
2018-09-24T00:18:15.700Z,7.42
2018-09-24T00:20:43.833Z,7.37
2018-09-24T00:23:11.880Z,7.39
2018-09-24T00:25:39.905Z,7.36
2018-09-24T00:28:08.178Z,7.36
2018-09-24T00:30:36.558Z,7.32
2018-09-24T00:33:04.565Z,7.30
2018-09-24T00:35:32.769Z,7.34
2018-09-24T00:38:00.700Z,7.34
2018-09-24T00:40:28.753Z,7.27
2018-09-24T00:42:56.714Z,7.32
2018-09-24T00:45:24.651Z,7.26
2018-09-24T00:47:52.600Z,7.30
2018-09-24T00:50:20.510Z,7.27
2018-09-24T00:52:48.609Z,7.26
2018-09-24T00:55:16.753Z,7.26
2018-09-24T00:57:44.778Z,7.27
2018-09-24T01:00:12.760Z,7.25
2018-09-24T01:02:40.710Z,7.22
2018-09-24T01:05:08.689Z,7.24
2018-09-24T01:07:36.665Z,7.22
2018-09-24T01:10:04.710Z,7.20
2018-09-24T01:12:32.732Z,7.23
2018-09-24T01:15:00.740Z,7.21
2018-09-24T01:17:28.770Z,7.23
2018-09-24T01:19:56.823Z,7.24
2018-09-24T01:22:24.750Z,7.23
2018-09-24T01:24:52.755Z,7.25
2018-09-24T01:27:20.805Z,7.27
2018-09-24T01:29:48.715Z,7.23
2018-09-24T01:32:16.604Z,7.24
2018-09-24T01:34:44.504Z,7.21
2018-09-24T01:37:12.518Z,7.15
2018-09-24T01:39:40.465Z,7.15
2018-09-24T01:42:08.445Z,7.09
2018-09-24T01:44:36.381Z,7.10
2018-09-24T01:47:04.371Z,7.08
2018-09-24T01:49:32.629Z,7.02
2018-09-24T01:52:00.765Z,7.01
2018-09-24T01:54:29.280Z,7.02
2018-09-24T01:56:57.288Z,7.02
2018-09-24T01:59:25.363Z,6.97
2018-09-24T02:01:53.396Z,6.97
2018-09-24T02:04:21.330Z,7.02
2018-09-24T02:06:49.580Z,7.04
2018-09-24T02:09:17.593Z,7.03
2018-09-24T02:11:45.700Z,7.02
2018-09-24T02:14:13.645Z,7.02
2018-09-24T02:16:41.650Z,6.98
2018-09-24T02:19:09.935Z,7.01
2018-09-24T02:21:37.990Z,7.02
2018-09-24T02:24:06.611Z,6.97
2018-09-24T02:26:34.719Z,7.02
2018-09-24T02:29:02.644Z,7.00
2018-09-24T02:31:37.025Z,6.99
2018-09-24T02:34:05.208Z,6.95
2018-09-24T02:36:33.223Z,6.92
2018-09-24T02:39:01.493Z,6.93
2018-09-24T02:41:29.467Z,6.88
2018-09-24T02:43:57.510Z,6.90
2018-09-24T02:46:25.432Z,6.84
2018-09-24T02:48:53.533Z,6.85
2018-09-24T02:51:21.618Z,6.86
2018-09-24T02:53:49.698Z,6.84
2018-09-24T02:56:17.734Z,6.78
2018-09-24T02:58:45.650Z,6.78
2018-09-24T03:01:13.658Z,6.78
2018-09-24T03:03:41.590Z,6.79
2018-09-24T03:06:09.589Z,6.78
2018-09-24T03:08:40.214Z,6.75
2018-09-24T03:11:08.202Z,6.74
2018-09-24T03:13:36.150Z,6.72
2018-09-24T03:16:04.019Z,6.74
2018-09-24T03:18:32.110Z,6.79
2018-09-24T03:21:00.292Z,6.85
2018-09-24T03:23:28.337Z,6.94
2018-09-24T03:25:56.427Z,6.96
2018-09-24T03:28:24.430Z,6.95
2018-09-24T03:30:52.355Z,6.94
2018-09-24T03:33:20.307Z,6.92
2018-09-24T03:35:48.268Z,6.84
2018-09-24T03:38:16.229Z,6.79
2018-09-24T03:40:44.160Z,6.75
2018-09-24T03:43:12.088Z,6.73
2018-09-24T03:45:40.035Z,6.68
2018-09-24T03:48:07.997Z,6.59
2018-09-24T03:50:35.904Z,6.59
2018-09-24T03:53:03.917Z,6.53
2018-09-24T03:55:31.836Z,6.50
2018-09-24T03:57:59.796Z,6.49
2018-09-24T04:00:27.810Z,6.45
2018-09-24T04:02:55.887Z,6.41
2018-09-24T04:05:29.323Z,6.40
2018-09-24T04:08:02.786Z,6.38
2018-09-24T04:10:36.180Z,6.32
2018-09-24T04:13:09.835Z,6.32
2018-09-24T04:15:43.699Z,6.29
2018-09-24T04:18:17.306Z,6.28
2018-09-24T04:20:50.663Z,6.31
2018-09-24T04:23:24.159Z,6.31
2018-09-24T04:25:57.702Z,6.31
2018-09-24T04:28:31.173Z,6.30
2018-09-24T04:31:04.694Z,6.27
2018-09-24T04:33:38.201Z,6.24
2018-09-24T04:36:12.076Z,6.23
2018-09-24T04:38:45.607Z,6.21
2018-09-24T04:41:19.057Z,6.22
2018-09-24T04:43:52.884Z,6.19
2018-09-24T04:46:26.448Z,6.17
2018-09-24T04:48:59.965Z,6.19
2018-09-24T04:51:33.865Z,6.23
2018-09-24T04:54:07.571Z,6.22
2018-09-24T04:56:41.143Z,6.18
2018-09-24T04:59:14.972Z,6.17
2018-09-24T05:01:48.587Z,6.15
2018-09-24T05:04:22.288Z,6.08
2018-09-24T05:06:55.924Z,6.12
2018-09-24T05:09:29.960Z,6.13
2018-09-24T05:12:03.594Z,6.16
2018-09-24T05:14:37.280Z,6.20
2018-09-24T05:17:10.997Z,6.23
2018-09-24T05:19:44.830Z,6.22
2018-09-24T05:22:18.352Z,6.30
2018-09-24T05:24:51.939Z,6.42
2018-09-24T05:27:25.643Z,6.58
2018-09-24T05:29:59.262Z,6.70
2018-09-24T05:32:32.911Z,6.72
2018-09-24T05:35:06.465Z,6.78
2018-09-24T05:37:40.267Z,7.15
2018-09-24T05:40:14.012Z,7.26
2018-09-24T05:42:47.537Z,7.04
2018-09-24T05:45:21.153Z,6.95
2018-09-24T05:47:54.682Z,6.85
2018-09-24T05:50:28.378Z,7.27
2018-09-24T05:53:02.073Z,8.02
2018-09-24T05:55:35.683Z,8.86
2018-09-24T05:58:09.309Z,9.43
2018-09-24T06:00:42.860Z,10.06
2018-09-24T06:03:16.317Z,10.61
2018-09-24T06:05:50.138Z,11.07
2018-09-24T06:08:23.576Z,11.51
2018-09-24T06:10:57.214Z,11.63
2018-09-24T06:13:30.728Z,12.14
2018-09-24T06:16:04.426Z,12.00
2018-09-24T06:18:37.921Z,11.01
2018-09-24T06:21:11.888Z,10.77
2018-09-24T06:23:45.457Z,11.63
2018-09-24T06:26:19.019Z,11.88
2018-09-24T06:28:52.469Z,12.56
2018-09-24T06:31:25.961Z,12.39
2018-09-24T06:33:59.407Z,13.18
2018-09-24T06:36:33.249Z,13.09
2018-09-24T06:39:06.744Z,13.17
2018-09-24T06:41:40.420Z,13.56
2018-09-24T06:44:14.262Z,14.18
2018-09-24T06:46:47.773Z,14.12
2018-09-24T06:49:21.171Z,14.02
2018-09-24T06:51:54.652Z,14.23
2018-09-24T06:54:28.172Z,13.33
2018-09-24T06:57:01.732Z,13.87
2018-09-24T06:59:35.514Z,14.61
2018-09-24T07:02:09.353Z,14.81
2018-09-24T07:04:42.932Z,15.14
2018-09-24T07:07:16.583Z,15.38
2018-09-24T07:09:50.228Z,14.47
2018-09-24T07:12:23.921Z,14.02
2018-09-24T07:14:57.561Z,14.46
2018-09-24T07:17:31.102Z,15.89
2018-09-24T07:20:04.819Z,16.73
2018-09-24T07:22:38.582Z,17.21
2018-09-24T07:25:12.112Z,17.56
2018-09-24T07:27:45.742Z,16.91
2018-09-24T07:30:19.332Z,17.23
2018-09-24T07:32:52.951Z,17.71
2018-09-24T07:35:26.445Z,17.39
2018-09-24T07:38:00.258Z,18.19
2018-09-24T07:40:33.771Z,17.13
2018-09-24T07:43:07.400Z,17.01
2018-09-24T07:45:40.909Z,17.73
2018-09-24T07:48:15.341Z,17.97
2018-09-24T07:50:49.119Z,17.61
2018-09-24T07:53:22.752Z,17.16
2018-09-24T07:55:56.354Z,17.47
2018-09-24T07:58:30.169Z,17.35
2018-09-24T08:01:03.778Z,18.39
2018-09-24T08:03:37.466Z,16.69
2018-09-24T08:06:11.096Z,17.80
2018-09-24T08:08:44.740Z,19.15
2018-09-24T08:11:18.267Z,18.99
2018-09-24T08:13:51.899Z,18.70
2018-09-24T08:16:25.455Z,17.99
2018-09-24T08:18:59.148Z,17.75
2018-09-24T08:21:32.614Z,18.37
2018-09-24T08:24:06.272Z,18.94
2018-09-24T08:26:39.952Z,19.02
2018-09-24T08:29:13.732Z,18.88
2018-09-24T08:31:47.458Z,19.26
2018-09-24T08:34:21.127Z,20.32
2018-09-24T08:36:54.764Z,20.29
2018-09-24T08:39:28.282Z,19.34
2018-09-24T08:42:01.806Z,18.62
2018-09-24T08:44:35.650Z,16.79
2018-09-24T08:47:09.330Z,15.71
2018-09-24T08:49:42.847Z,14.82
2018-09-24T08:52:16.436Z,14.44
2018-09-24T08:54:50.302Z,13.88
2018-09-24T08:57:24.042Z,13.72
2018-09-24T08:59:57.703Z,14.02
2018-09-24T09:02:31.240Z,13.68
2018-09-24T09:05:04.897Z,14.01
2018-09-24T09:07:38.499Z,14.03
2018-09-24T09:10:12.112Z,13.74
2018-09-24T09:12:45.844Z,13.85
2018-09-24T09:15:19.478Z,13.64
2018-09-24T09:17:53.146Z,13.65
2018-09-24T09:20:26.801Z,14.03
2018-09-24T09:23:00.567Z,13.70
2018-09-24T09:25:34.001Z,13.74
2018-09-24T09:28:07.421Z,13.63
2018-09-24T09:30:40.883Z,13.56
2018-09-24T09:33:14.624Z,13.27
2018-09-24T09:35:48.364Z,12.81
2018-09-24T09:38:21.841Z,13.00
2018-09-24T09:40:55.432Z,13.22
2018-09-24T09:43:29.060Z,13.43
2018-09-24T09:46:02.709Z,13.72
2018-09-24T09:48:36.164Z,13.66
2018-09-24T09:51:09.828Z,13.45
2018-09-24T09:53:43.509Z,13.55
2018-09-24T09:56:17.316Z,13.48
2018-09-24T09:58:50.846Z,13.24
2018-09-24T10:01:24.574Z,13.31
2018-09-24T10:03:58.246Z,13.38
2018-09-24T10:06:31.934Z,13.57
2018-09-24T10:09:05.836Z,13.73
2018-09-24T10:11:40.046Z,13.73
2018-09-24T10:14:13.675Z,14.08
2018-09-24T10:16:47.544Z,14.28
2018-09-24T10:19:21.156Z,14.61
2018-09-24T10:21:54.843Z,14.73
2018-09-24T10:24:28.368Z,15.04
2018-09-24T10:27:02.004Z,14.87
2018-09-24T10:29:35.607Z,14.55
2018-09-24T10:32:09.347Z,14.44
2018-09-24T10:34:42.935Z,14.50
2018-09-24T10:37:16.607Z,14.52
2018-09-24T10:39:50.338Z,14.27
2018-09-24T10:42:23.915Z,14.09
2018-09-24T10:44:57.596Z,14.54
2018-09-24T10:47:31.067Z,14.41
2018-09-24T10:50:04.629Z,13.92
2018-09-24T10:52:38.359Z,14.01
2018-09-24T10:55:11.975Z,14.28
2018-09-24T10:57:45.935Z,15.20
2018-09-24T11:00:19.622Z,15.87
2018-09-24T11:02:53.127Z,17.03
2018-09-24T11:05:26.827Z,16.95
2018-09-24T11:08:00.528Z,17.59
2018-09-24T11:10:34.127Z,17.55
2018-09-24T11:13:07.787Z,16.86
2018-09-24T11:15:41.630Z,17.55
2018-09-24T11:18:15.195Z,17.07
2018-09-24T11:20:48.906Z,16.20
2018-09-24T11:23:22.526Z,16.27
2018-09-24T11:25:56.227Z,15.36
2018-09-24T11:28:29.827Z,14.97
2018-09-24T11:31:03.420Z,15.24
2018-09-24T11:33:37.047Z,15.23
2018-09-24T11:36:12.055Z,15.29
2018-09-24T11:38:45.667Z,15.13
2018-09-24T11:41:19.355Z,15.20
2018-09-24T11:43:52.876Z,15.37
2018-09-24T11:46:27.390Z,15.52
2018-09-24T11:49:01.096Z,15.30
2018-09-24T11:51:34.766Z,14.88
2018-09-24T11:54:08.326Z,14.58
2018-09-24T11:56:42.090Z,14.17
2018-09-24T11:59:16.566Z,13.23
2018-09-24T12:01:50.134Z,12.82
2018-09-24T12:04:23.686Z,12.51
2018-09-24T12:06:57.275Z,12.33
2018-09-24T12:09:30.860Z,12.16
2018-09-24T12:12:04.515Z,12.17
2018-09-24T12:14:38.116Z,12.27
2018-09-24T12:17:11.852Z,12.63
2018-09-24T12:19:45.515Z,12.80
2018-09-24T12:22:19.055Z,13.31
2018-09-24T12:24:52.775Z,13.87
2018-09-24T12:27:26.436Z,13.87
2018-09-24T12:29:59.987Z,13.32
2018-09-24T12:32:33.675Z,12.87
2018-09-24T12:35:07.275Z,12.71
2018-09-24T12:37:40.955Z,13.16
2018-09-24T12:40:14.716Z,13.70
2018-09-24T12:42:48.371Z,14.27
2018-09-24T12:45:22.124Z,14.42
2018-09-24T12:47:55.760Z,14.07
2018-09-24T12:50:29.523Z,14.35
2018-09-24T12:53:03.018Z,14.24
2018-09-24T12:55:43.678Z,14.15
2018-09-24T12:58:20.720Z,13.81
2018-09-24T13:00:58.842Z,13.22
2018-09-24T13:03:33.346Z,13.10
2018-09-24T13:06:07.807Z,13.34
2018-09-24T13:08:41.467Z,13.30
2018-09-24T13:11:15.575Z,13.37
2018-09-24T13:13:49.508Z,13.39
2018-09-24T13:16:23.175Z,13.33
2018-09-24T13:18:56.855Z,13.44
2018-09-24T13:21:30.489Z,13.42
2018-09-24T13:24:04.167Z,13.48
2018-09-24T13:26:44.434Z,13.37
2018-09-24T13:29:18.143Z,13.35
2018-09-24T13:31:51.840Z,13.46
2018-09-24T13:34:25.620Z,13.38
2018-09-24T13:37:02.857Z,13.54
2018-09-24T13:39:36.552Z,13.80
2018-09-24T13:42:10.228Z,13.92
2018-09-24T13:44:44.028Z,13.98
2018-09-24T13:47:17.776Z,14.31
2018-09-24T13:49:52.737Z,14.19
2018-09-24T13:52:31.638Z,14.28
2018-09-24T13:55:06.311Z,14.07
2018-09-24T13:57:39.862Z,13.87
2018-09-24T14:00:13.884Z,13.83
2018-09-24T14:02:47.383Z,13.75
2018-09-24T14:05:21.089Z,13.57
2018-09-24T14:07:54.534Z,13.38
2018-09-24T14:10:28.924Z,13.00
2018-09-24T14:13:02.611Z,13.08
2018-09-24T14:15:36.291Z,13.17
2018-09-24T14:18:11.463Z,13.24
2018-09-24T14:20:46.222Z,13.24
2018-09-24T14:23:19.866Z,13.54
2018-09-24T14:25:53.559Z,13.83
2018-09-24T14:28:27.249Z,13.70
2018-09-24T14:31:01.113Z,13.51
2018-09-24T14:33:34.613Z,13.32
2018-09-24T14:36:08.098Z,13.16
2018-09-24T14:38:41.593Z,13.03
2018-09-24T14:41:15.111Z,13.13
2018-09-24T14:43:48.709Z,13.08
2018-09-24T14:46:22.410Z,13.23
2018-09-24T14:48:56.038Z,13.62
2018-09-24T14:51:29.880Z,13.91
2018-09-24T14:54:03.400Z,13.90
2018-09-24T14:56:37.123Z,13.86
2018-09-24T14:59:10.617Z,13.52
2018-09-24T15:01:44.445Z,13.57
2018-09-24T15:04:18.086Z,13.57
2018-09-24T15:06:51.548Z,13.60
2018-09-24T15:09:25.268Z,13.38
2018-09-24T15:11:59.018Z,13.44
2018-09-24T15:14:32.438Z,13.49
2018-09-24T15:17:06.099Z,13.39
2018-09-24T15:19:40.524Z,13.41
2018-09-24T15:22:14.039Z,13.40
2018-09-24T15:24:47.671Z,13.39
2018-09-24T15:27:21.290Z,13.40
2018-09-24T15:29:55.038Z,13.40
2018-09-24T15:32:33.391Z,13.27
2018-09-24T15:35:08.052Z,13.35
2018-09-24T15:37:44.470Z,13.30
2018-09-24T15:40:20.387Z,13.39
2018-09-24T15:42:56.438Z,13.60
2018-09-24T15:45:29.938Z,13.68
2018-09-24T15:48:03.536Z,13.63
2018-09-24T15:50:37.276Z,13.66
2018-09-24T15:53:11.257Z,13.74
2018-09-24T15:55:44.739Z,13.65
2018-09-24T15:58:18.592Z,13.54
2018-09-24T16:00:52.067Z,12.59
2018-09-24T16:03:25.640Z,12.18
2018-09-24T16:05:59.106Z,11.92
2018-09-24T16:08:32.761Z,11.69
2018-09-24T16:11:07.023Z,11.66
2018-09-24T16:13:40.418Z,11.45
2018-09-24T16:16:13.922Z,10.60
2018-09-24T16:18:47.711Z,10.05
2018-09-24T16:21:21.756Z,9.79
2018-09-24T16:23:55.424Z,9.32
2018-09-24T16:26:30.689Z,9.07
2018-09-24T16:29:04.167Z,9.06
2018-09-24T16:31:37.924Z,9.07
2018-09-24T16:34:11.776Z,9.04
2018-09-24T16:36:45.255Z,9.13
2018-09-24T16:39:18.838Z,9.15
2018-09-24T16:41:52.504Z,9.19
2018-09-24T16:44:25.955Z,9.23
2018-09-24T16:46:59.656Z,9.28
2018-09-24T16:49:33.600Z,9.30
2018-09-24T16:52:07.120Z,9.27
2018-09-24T16:54:40.618Z,9.23
2018-09-24T16:57:14.226Z,9.21
2018-09-24T16:59:48.075Z,9.14
2018-09-24T17:02:21.918Z,9.07
2018-09-24T17:04:55.673Z,9.11
2018-09-24T17:07:29.575Z,9.09
2018-09-24T17:10:03.310Z,9.01
2018-09-24T17:12:37.089Z,8.95
2018-09-24T17:15:12.021Z,8.94
2018-09-24T17:17:45.536Z,8.93
2018-09-24T17:20:18.979Z,8.94
2018-09-24T17:22:52.505Z,8.98
2018-09-24T17:25:26.075Z,9.08
2018-09-24T17:27:59.585Z,9.17
2018-09-24T17:30:34.081Z,9.18
2018-09-24T17:33:07.563Z,9.14
2018-09-24T17:35:41.041Z,9.12
2018-09-24T17:38:14.435Z,9.08
2018-09-24T17:40:47.918Z,9.01
2018-09-24T17:43:21.462Z,8.95
2018-09-24T17:45:55.796Z,8.84
2018-09-24T17:48:29.297Z,8.75
2018-09-24T17:51:03.143Z,8.75
2018-09-24T17:53:36.700Z,8.70
2018-09-24T17:56:10.294Z,8.68
2018-09-24T17:58:43.686Z,8.63
2018-09-24T18:01:17.182Z,8.63
2018-09-24T18:03:50.705Z,8.61
2018-09-24T18:06:24.402Z,8.59
2018-09-24T18:08:57.917Z,8.64
2018-09-24T18:11:31.724Z,8.68
2018-09-24T18:14:05.325Z,8.76
2018-09-24T18:16:38.756Z,8.81
2018-09-24T18:19:12.444Z,8.79
2018-09-24T18:21:46.088Z,8.72
2018-09-24T18:24:19.505Z,8.72
2018-09-24T18:26:53.142Z,8.67
2018-09-24T18:29:26.605Z,8.64
2018-09-24T18:31:59.947Z,8.58
2018-09-24T18:34:33.622Z,8.49
2018-09-24T18:37:07.550Z,8.45
2018-09-24T18:39:40.953Z,8.38
2018-09-24T18:42:14.438Z,8.35
2018-09-24T18:44:48.033Z,8.30
2018-09-24T18:47:21.663Z,8.25
2018-09-24T18:49:55.212Z,8.21
2018-09-24T18:52:28.623Z,8.20
2018-09-24T18:55:02.010Z,8.16
2018-09-24T18:57:35.413Z,8.15
2018-09-24T19:00:08.920Z,8.15
2018-09-24T19:02:42.442Z,8.17
2018-09-24T19:05:15.856Z,8.14
2018-09-24T19:07:49.406Z,8.14
2018-09-24T19:10:23.045Z,8.16
2018-09-24T19:12:56.648Z,8.19
2018-09-24T19:15:30.110Z,8.23
2018-09-24T19:18:03.648Z,8.20
2018-09-24T19:20:37.100Z,8.23
2018-09-24T19:23:10.652Z,8.21
2018-09-24T19:25:44.140Z,8.23
2018-09-24T19:28:17.595Z,8.27
2018-09-24T19:30:51.090Z,8.25
2018-09-24T19:33:24.548Z,8.26
2018-09-24T19:36:05.046Z,8.26
2018-09-24T19:38:38.761Z,8.26
2018-09-24T19:41:12.421Z,8.30
2018-09-24T19:43:45.934Z,8.32
2018-09-24T19:46:19.433Z,8.28
2018-09-24T19:48:52.992Z,8.31
2018-09-24T19:51:26.352Z,8.30
2018-09-24T19:53:59.776Z,8.28
2018-09-24T19:56:33.580Z,8.26
2018-09-24T19:59:07.375Z,8.25
2018-09-24T20:01:40.822Z,8.26
2018-09-24T20:04:14.310Z,8.25
2018-09-24T20:06:47.771Z,8.25
2018-09-24T20:09:21.313Z,8.23
2018-09-24T20:11:54.840Z,8.22
2018-09-24T20:14:28.510Z,8.21
2018-09-24T20:17:02.171Z,8.19
2018-09-24T20:19:35.673Z,8.14
2018-09-24T20:22:10.388Z,8.12
2018-09-24T20:24:43.931Z,8.09
2018-09-24T20:27:17.393Z,8.10
2018-09-24T20:29:50.935Z,8.08
2018-09-24T20:32:24.436Z,8.08
2018-09-24T20:34:57.916Z,8.07
2018-09-24T20:37:31.485Z,8.04
2018-09-24T20:40:05.147Z,7.99
2018-09-24T20:42:38.678Z,7.96
2018-09-24T20:45:12.633Z,7.99
2018-09-24T20:47:46.166Z,7.96
2018-09-24T20:50:19.730Z,7.96
2018-09-24T20:52:53.262Z,7.89
2018-09-24T20:55:26.678Z,7.90
2018-09-24T20:58:00.156Z,7.87
2018-09-24T21:00:33.505Z,7.81
2018-09-24T21:03:07.221Z,7.86
2018-09-24T21:05:40.817Z,7.85
2018-09-24T21:08:14.401Z,7.83
2018-09-24T21:10:47.910Z,7.82
2018-09-24T21:13:21.340Z,7.85
2018-09-24T21:15:54.760Z,7.79
2018-09-24T21:18:28.273Z,7.78
2018-09-24T21:21:01.681Z,7.73
2018-09-24T21:23:35.450Z,7.73
2018-09-24T21:26:08.879Z,7.71
2018-09-24T21:28:42.432Z,7.70
2018-09-24T21:31:15.890Z,7.68
2018-09-24T21:33:49.475Z,7.62
2018-09-24T21:36:23.017Z,7.65
2018-09-24T21:38:56.802Z,7.63
2018-09-24T21:41:30.300Z,7.60
2018-09-24T21:44:03.988Z,7.59
2018-09-24T21:46:37.614Z,7.58
2018-09-24T21:49:10.960Z,7.61
2018-09-24T21:51:44.340Z,7.60
2018-09-24T21:54:17.849Z,7.57
2018-09-24T21:56:51.453Z,7.52
2018-09-24T21:59:24.901Z,7.50
2018-09-24T22:01:58.486Z,7.49
2018-09-24T22:04:31.926Z,7.54
2018-09-24T22:07:05.242Z,7.48
2018-09-24T22:09:40.266Z,7.46
2018-09-24T22:12:13.805Z,7.34
2018-09-24T22:14:47.465Z,7.33
2018-09-24T22:17:21.045Z,7.33
2018-09-24T22:19:54.613Z,7.32
2018-09-24T22:22:28.120Z,7.30
2018-09-24T22:25:01.850Z,7.21
2018-09-24T22:27:35.433Z,7.17
2018-09-24T22:30:08.835Z,7.21
2018-09-24T22:32:42.296Z,7.29
2018-09-24T22:35:15.780Z,7.31
2018-09-24T22:37:49.188Z,7.26
2018-09-24T22:40:22.596Z,7.26
2018-09-24T22:42:56.103Z,7.22
2018-09-24T22:45:29.556Z,7.22
2018-09-24T22:48:03.059Z,7.21
2018-09-24T22:50:37.068Z,7.14
2018-09-24T22:53:10.586Z,7.09
2018-09-24T22:55:44.240Z,7.11
2018-09-24T22:58:17.700Z,7.05
2018-09-24T23:00:51.188Z,6.99
2018-09-24T23:03:24.436Z,6.98
2018-09-24T23:05:57.901Z,6.95
2018-09-24T23:08:31.361Z,7.03
2018-09-24T23:11:04.954Z,7.02
2018-09-24T23:13:38.464Z,6.99
2018-09-24T23:16:11.929Z,6.96
2018-09-24T23:18:45.333Z,6.96
2018-09-24T23:21:18.739Z,6.91
2018-09-24T23:23:52.293Z,6.84
2018-09-24T23:26:25.697Z,6.81
2018-09-24T23:28:59.101Z,6.79
2018-09-24T23:31:32.539Z,6.67
2018-09-24T23:34:05.924Z,6.65
2018-09-24T23:36:39.425Z,6.57
2018-09-24T23:39:13.659Z,6.54
2018-09-24T23:41:47.447Z,6.52
2018-09-24T23:44:20.790Z,6.48
2018-09-24T23:46:54.306Z,6.43
2018-09-24T23:49:27.838Z,6.33
2018-09-24T23:52:01.498Z,6.31
2018-09-24T23:54:34.920Z,6.30
2018-09-24T23:57:08.398Z,6.31
2018-09-24T23:59:41.733Z,6.24
